Aracaju Airport, Brazil

4:00 AM BRST on October 25, 2014 (GMT -0200)
Santa Maria | Change Station
CLOSE
Current Station
Airport
Location: Aracaju Airport,
Elevation: 30 ft
Nearby Weather Stations

Elev 30 ft 10.98 °S, 37.07 °W | Updated 13 seconds ago

Scattered Clouds
Scattered Clouds
73 °F
Feels Like 73 °F
N
6
Wind Variable Wind from SE

Today
High -- | Low -- °F
--% Chance of Precip.
Yesterday
High -- | Low -- °F
Precip. -- in
5:59 AM 6:25 PM
New Moon, 2% visible
Pressure 29.89 in
Visibility 6.2 miles
Clouds Scattered Clouds 1600 ft
Scattered Clouds 7000 ft
Dew Point 68 °F
Humidity 83%
Rainfall 0.00 in
Snow Depth Not available.
UV 0 out of 12
Pollen Not available.
Air Quality Not available.
Flu Activity Not available.
METAR SBAR 250600Z 14005KT 9999 SCT016 SCT070 23/20 Q1012

More Conditions Fewer Conditions

Pressure 29.89 in
Visibility 6.2 miles
Clouds Scattered Clouds 1600 ft
Scattered Clouds 7000 ft
Dew Point 68 °F
Humidity 83%
Rainfall 0.00 in
Snow Depth Not available.
UV 0 out of 12
Pollen Not available.
Air Quality Not available.
Flu Activity Not available.
METAR SBAR 250600Z 14005KT 9999 SCT016 SCT070 23/20 Q1012

More Conditions Fewer Conditions

10-Day Weather Forecast

Almanac

Astronomy

Oct. 25, 2014 Rise Set
Actual Time 5:59 AM BRST 6:25 PM BRST
Civil Twilight 5:37 AM BRST 6:47 PM BRST
Nautical Twilight 5:12 AM BRST 7:12 PM BRST
Astronomical Twilight 4:47 AM BRST 7:37 PM BRST
Moon 7:12 AM BRST 8:03 PM BRST
Length of Visible Light 13h 09m
Length of Day
12h 26m
Tomorrow will be 0m 33s longer.
New Moon, 2% of the Moon is Illuminated
Today
New Moon
Oct 30
First Quarter
Nov 6
Full
Nov 14
Last Quarter
Nov 22
New

Yesterday's Extremes

Country Highs Country Lows

Community

WunderPhotos

Upload Photos

1,764,785 photos uploaded!

Nearby

Snow Depth

Not available.

Earthquake Activity

City Distance Mag. Time & Date
No recent earthquake activity has been reported nearby.
Minimum magnitude displayed is 2.5.

Coastal Water Temperatures

Place Temperature
No Stations Reporting

Nearby Weather Stations